Time,TemperatureF,DewpointF,PressureIn,WindDirection,WindDirectionDegrees,WindSpeedMPH,WindSpeedGustMPH,Humidity,HourlyPrecipIn,Conditions,Clouds,dailyrainin,SoftwareType,DateUTC
2013-01-11 00:00:00,61.2,57.9,30.27,South,186,0.0,0.0,89,0.00,CLR,OVC,0.00,WeatherDisplay:10.37,2013-01-11 05:00:00,
2013-01-11 00:01:00,61.2,57.9,30.28,South,185,0.0,0.0,89,0.00,CLR,OVC,0.00,WeatherDisplay:10.37,2013-01-11 05:01:00,
2013-01-11 00:02:00,61.2,57.9,30.27,South,186,0.0,0.0,89,0.00,CLR,OVC,0.00,WeatherDisplay:10.37,2013-01-11 05:02:00,
2013-01-11 00:07:00,61.3,58.0,30.27,South,186,0.0,0.0,89,0.00,CLR,OVC,0.00,WeatherDisplay:10.37,2013-01-11 05:07:00,
2013-01-11 00:12:00,61.2,57.9,30.27,South,186,0.0,0.0,89,0.00,CLR,OVC,0.00,WeatherDisplay:10.37,2013-01-11 05:12:00,
2013-01-11 00:17:00,61.1,57.8,30.27,South,186,0.0,0.0,89,0.00,CLR,OVC,0.00,WeatherDisplay:10.37,2013-01-11 05:17:00,
2013-01-11 00:22:00,60.9,57.6,30.27,South,185,0.0,0.0,89,0.00,CLR,OVC,0.00,WeatherDisplay:10.37,2013-01-11 05:22:00,
2013-01-11 00:27:00,60.8,57.5,30.27,South,186,0.0,0.0,89,0.00,CLR,OVC,0.00,WeatherDisplay:10.37,2013-01-11 05:27:00,
2013-01-11 00:32:00,60.7,57.4,30.27,South,185,0.0,0.0,89,0.00,CLR,OVC,0.00,WeatherDisplay:10.37,2013-01-11 05:32:00,
2013-01-11 00:37:00,60.6,57.3,30.26,South,186,0.0,0.0,89,0.00,CLR,OVC,0.00,WeatherDisplay:10.37,2013-01-11 05:37:00,
2013-01-11 00:42:00,60.4,57.1,30.27,South,186,0.0,0.0,89,0.00,CLR,OVC,0.00,WeatherDisplay:10.37,2013-01-11 05:42:00,
2013-01-11 00:47:00,60.2,56.9,30.26,South,186,0.0,0.0,89,0.00,CLR,OVC,0.00,WeatherDisplay:10.37,2013-01-11 05:47:00,
2013-01-11 00:52:00,60.0,56.7,30.26,South,186,0.0,0.0,89,0.00,CLR,OVC,0.00,WeatherDisplay:10.37,2013-01-11 05:52:00,
2013-01-11 00:57:00,60.0,56.7,30.26,South,186,0.0,0.0,89,0.00,CLR,OVC,0.00,WeatherDisplay:10.37,2013-01-11 05:57:00,
2013-01-11 01:02:00,60.0,57.1,30.26,South,186,0.0,0.0,90,0.00,CLR,OVC,0.00,WeatherDisplay:10.37,2013-01-11 06:02:00,
2013-01-11 01:07:00,59.9,57.0,30.26,South,185,0.0,0.0,90,0.00,CLR,OVC,0.00,WeatherDisplay:10.37,2013-01-11 06:07:00,
2013-01-11 01:12:00,60.0,57.1,30.25,South,185,0.0,0.0,90,0.00,CLR,OVC,0.00,WeatherDisplay:10.37,2013-01-11 06:12:00,
2013-01-11 01:17:00,60.0,57.1,30.25,South,186,0.0,0.0,90,0.00,CLR,OVC,0.00,WeatherDisplay:10.37,2013-01-11 06:17:00,
2013-01-11 01:22:00,59.9,57.0,30.25,South,186,0.0,0.0,90,0.00,CLR,OVC,0.00,WeatherDisplay:10.37,2013-01-11 06:22:00,
2013-01-11 01:27:00,59.8,56.9,30.25,South,185,0.0,0.0,90,0.00,CLR,OVC,0.00,WeatherDisplay:10.37,2013-01-11 06:27:00,
2013-01-11 01:32:00,59.6,56.7,30.25,South,186,0.0,0.0,90,0.00,CLR,OVC,0.00,WeatherDisplay:10.37,2013-01-11 06:32:00,
2013-01-11 01:37:00,59.5,56.6,30.25,South,185,0.0,0.0,90,0.00,CLR,OVC,0.00,WeatherDisplay:10.37,2013-01-11 06:37:00,
2013-01-11 01:42:00,59.4,56.5,30.25,South,185,0.0,0.0,90,0.00,CLR,OVC,0.00,WeatherDisplay:10.37,2013-01-11 06:42:00,
2013-01-11 01:47:00,59.3,56.4,30.25,South,185,0.0,0.0,90,0.00,CLR,OVC,0.00,WeatherDisplay:10.37,2013-01-11 06:47:00,
2013-01-11 01:52:00,59.3,56.4,30.25,South,186,0.0,0.0,90,0.00,CLR,OVC,0.00,WeatherDisplay:10.37,2013-01-11 06:52:00,
2013-01-11 01:57:00,59.2,56.3,30.25,South,186,0.0,0.0,90,0.00,CLR,OVC,0.00,WeatherDisplay:10.37,2013-01-11 06:57:00,
2013-01-11 02:02:00,59.2,56.3,30.26,South,186,0.0,0.0,90,0.00,CLR,OVC,0.00,WeatherDisplay:10.37,2013-01-11 07:02:00,
2013-01-11 02:07:00,59.2,56.3,30.26,South,186,0.0,0.0,90,0.00,CLR,OVC,0.00,WeatherDisplay:10.37,2013-01-11 07:07:00,
2013-01-11 02:12:00,59.2,56.3,30.26,South,186,0.0,0.0,90,0.00,CLR,OVC,0.00,WeatherDisplay:10.37,2013-01-11 07:12:00,
2013-01-11 02:17:00,59.2,56.3,30.26,South,186,0.0,0.0,90,0.00,CLR,OVC,0.00,WeatherDisplay:10.37,2013-01-11 07:17:00,
2013-01-11 02:22:00,59.1,56.2,30.25,South,185,0.0,0.0,90,0.00,CLR,OVC,0.00,WeatherDisplay:10.37,2013-01-11 07:22:00,
2013-01-11 02:27:00,59.0,56.1,30.26,South,186,0.0,0.0,90,0.00,CLR,OVC,0.00,WeatherDisplay:10.37,2013-01-11 07:27:00,
2013-01-11 02:32:00,59.2,56.3,30.25,South,186,0.0,0.0,90,0.00,CLR,OVC,0.00,WeatherDisplay:10.37,2013-01-11 07:32:00,
2013-01-11 02:37:00,59.3,56.4,30.25,South,185,0.0,0.0,90,0.00,CLR,OVC,0.00,WeatherDisplay:10.37,2013-01-11 07:37:00,
2013-01-11 02:42:00,59.2,56.3,30.25,South,186,0.0,0.0,90,0.00,CLR,OVC,0.00,WeatherDisplay:10.37,2013-01-11 07:42:00,
2013-01-11 02:47:00,59.0,56.1,30.25,South,186,0.0,0.0,90,0.00,CLR,OVC,0.00,WeatherDisplay:10.37,2013-01-11 07:47:00,
2013-01-11 02:52:00,59.1,56.2,30.25,South,185,0.0,0.0,90,0.00,CLR,OVC,0.00,WeatherDisplay:10.37,2013-01-11 07:52:00,
2013-01-11 02:57:00,59.0,56.1,30.26,South,186,0.0,0.0,90,0.00,CLR,OVC,0.00,WeatherDisplay:10.37,2013-01-11 07:57:00,
2013-01-11 03:02:00,59.0,56.1,30.26,South,186,0.0,0.0,90,0.00,CLR,OVC,0.00,WeatherDisplay:10.37,2013-01-11 08:02:00,
2013-01-11 03:07:00,58.8,55.9,30.26,South,186,0.0,0.0,90,0.00,CLR,OVC,0.00,WeatherDisplay:10.37,2013-01-11 08:07:00,
2013-01-11 03:12:00,58.8,55.9,30.25,South,185,0.0,0.0,90,0.00,CLR,OVC,0.00,WeatherDisplay:10.37,2013-01-11 08:12:00,
2013-01-11 03:17:00,58.6,55.7,30.25,South,185,0.0,0.0,90,0.00,CLR,OVC,0.00,WeatherDisplay:10.37,2013-01-11 08:17:00,
2013-01-11 03:22:00,58.5,55.6,30.25,South,185,0.0,0.0,90,0.00,CLR,OVC,0.00,WeatherDisplay:10.37,2013-01-11 08:22:00,
2013-01-11 03:27:00,58.4,55.5,30.25,South,186,0.0,0.0,90,0.00,CLR,OVC,0.00,WeatherDisplay:10.37,2013-01-11 08:27:00,
2013-01-11 03:32:00,58.5,55.6,30.25,South,186,0.0,0.0,90,0.00,CLR,OVC,0.00,WeatherDisplay:10.37,2013-01-11 08:32:00,
2013-01-11 03:37:00,58.5,55.6,30.25,South,186,0.0,0.0,90,0.00,CLR,OVC,0.00,WeatherDisplay:10.37,2013-01-11 08:37:00,
2013-01-11 03:42:00,58.5,55.6,30.25,South,185,0.0,0.0,90,0.00,CLR,OVC,0.00,WeatherDisplay:10.37,2013-01-11 08:42:00,
2013-01-11 03:47:00,58.6,55.7,30.24,South,186,0.0,0.0,90,0.00,CLR,OVC,0.00,WeatherDisplay:10.37,2013-01-11 08:47:00,
2013-01-11 03:52:00,58.6,55.7,30.24,South,186,0.0,0.0,90,0.00,CLR,OVC,0.00,WeatherDisplay:10.37,2013-01-11 08:52:00,
2013-01-11 03:57:00,58.4,55.5,30.24,South,185,0.0,0.0,90,0.00,CLR,OVC,0.00,WeatherDisplay:10.37,2013-01-11 08:57:00,
2013-01-11 04:02:00,58.3,55.4,30.24,South,186,0.0,0.0,90,0.00,CLR,OVC,0.00,WeatherDisplay:10.37,2013-01-11 09:02:00,
2013-01-11 04:07:00,58.2,55.3,30.24,South,185,0.0,0.0,90,0.00,CLR,OVC,0.00,WeatherDisplay:10.37,2013-01-11 09:07:00,
2013-01-11 04:12:00,58.0,55.1,30.24,South,185,0.0,0.0,90,0.00,CLR,OVC,0.00,WeatherDisplay:10.37,2013-01-11 09:12:00,
2013-01-11 04:17:00,57.9,55.0,30.24,South,186,0.0,0.0,90,0.00,FEW,OVC,0.00,WeatherDisplay:10.37,2013-01-11 09:17:00,
2013-01-11 04:22:00,58.0,55.1,30.23,South,185,0.0,0.0,90,0.00,FEW,OVC,0.00,WeatherDisplay:10.37,2013-01-11 09:22:00,
2013-01-11 04:27:00,58.0,55.1,30.23,South,185,0.0,0.0,90,0.00,FEW,OVC,0.00,WeatherDisplay:10.37,2013-01-11 09:27:00,
2013-01-11 04:32:00,57.9,55.0,30.23,South,185,0.0,0.0,90,0.00,FEW,OVC,0.00,WeatherDisplay:10.37,2013-01-11 09:32:00,
2013-01-11 04:37:00,57.8,54.9,30.23,South,186,0.0,0.0,90,0.00,FEW,OVC,0.00,WeatherDisplay:10.37,2013-01-11 09:37:00,
2013-01-11 04:42:00,57.8,54.9,30.23,South,186,0.0,0.0,90,0.00,FEW,OVC,0.00,WeatherDisplay:10.37,2013-01-11 09:42:00,
2013-01-11 04:47:00,57.7,54.8,30.23,South,185,0.0,0.0,90,0.00,FEW,OVC,0.00,WeatherDisplay:10.37,2013-01-11 09:47:00,
2013-01-11 04:52:00,57.7,54.8,30.23,South,186,0.0,0.0,90,0.00,FEW,OVC,0.00,WeatherDisplay:10.37,2013-01-11 09:52:00,
2013-01-11 04:57:00,57.7,54.8,30.23,South,186,0.0,0.0,90,0.00,FEW,OVC,0.00,WeatherDisplay:10.37,2013-01-11 09:57:00,
2013-01-11 04:59:00,57.8,54.9,30.23,South,185,0.0,0.0,90,0.00,FEW,OVC,0.00,WeatherDisplay:10.37,2013-01-11 09:59:00,
2013-01-11 05:02:00,57.8,54.9,30.23,South,185,0.0,0.0,90,0.00,FEW,OVC,0.00,WeatherDisplay:10.37,2013-01-11 10:02:00,
2013-01-11 05:07:00,57.8,54.9,30.23,South,185,0.0,0.0,90,0.00,FEW,OVC,0.00,WeatherDisplay:10.37,2013-01-11 10:07:00,
2013-01-11 05:12:00,58.4,55.5,30.23,South,186,0.0,0.0,90,0.00,FEW,OVC,0.00,WeatherDisplay:10.37,2013-01-11 10:12:00,
2013-01-11 05:17:00,58.2,55.3,30.24,South,185,0.0,0.0,90,0.00,CLR,OVC,0.00,WeatherDisplay:10.37,2013-01-11 10:17:00,
2013-01-11 05:22:00,58.4,55.5,30.24,South,185,0.0,0.0,90,0.00,CLR,OVC,0.00,WeatherDisplay:10.37,2013-01-11 10:22:00,
2013-01-11 05:27:00,59.1,56.5,30.24,South,184,0.0,0.0,91,0.00,CLR,OVC,0.00,WeatherDisplay:10.37,2013-01-11 10:27:00,
2013-01-11 05:32:00,59.5,56.9,30.24,South,187,1.1,0.0,91,0.00,CLR,OVC,0.00,WeatherDisplay:10.37,2013-01-11 10:32:00,
2013-01-11 05:37:00,59.7,57.1,30.23,South,187,0.0,0.0,91,0.00,CLR,OVC,0.00,WeatherDisplay:10.37,2013-01-11 10:37:00,
2013-01-11 05:42:00,59.7,57.1,30.23,South,187,1.1,0.0,91,0.00,CLR,OVC,0.00,WeatherDisplay:10.37,2013-01-11 10:42:00,
2013-01-11 05:47:00,59.3,56.7,30.23,South,187,0.0,0.0,91,0.00,CLR,OVC,0.00,WeatherDisplay:10.37,2013-01-11 10:47:00,
2013-01-11 05:52:00,59.0,56.4,30.23,South,187,0.0,0.0,91,0.00,CLR,OVC,0.00,WeatherDisplay:10.37,2013-01-11 10:52:00,
2013-01-11 05:57:00,58.9,56.3,30.23,South,187,0.0,0.0,91,0.00,CLR,OVC,0.00,WeatherDisplay:10.37,2013-01-11 10:57:00,
2013-01-11 06:02:00,58.8,56.2,30.23,South,187,0.0,0.0,91,0.00,CLR,OVC,0.00,WeatherDisplay:10.37,2013-01-11 11:02:00,
2013-01-11 06:07:00,58.6,56.0,30.23,South,187,0.0,0.0,91,0.00,CLR,OVC,0.00,WeatherDisplay:10.37,2013-01-11 11:07:00,
2013-01-11 06:12:00,58.5,55.9,30.23,South,187,0.0,0.0,91,0.00,CLR,OVC,0.00,WeatherDisplay:10.37,2013-01-11 11:12:00,
2013-01-11 06:17:00,58.3,55.4,30.23,South,187,0.0,0.0,90,0.00,FEW,OVC,0.00,WeatherDisplay:10.37,2013-01-11 11:17:00,
2013-01-11 06:22:00,58.3,55.7,30.23,South,187,0.0,0.0,91,0.00,FEW,OVC,0.00,WeatherDisplay:10.37,2013-01-11 11:22:00,
2013-01-11 06:27:00,58.3,55.7,30.23,South,187,0.0,0.0,91,0.00,FEW,OVC,0.00,WeatherDisplay:10.37,2013-01-11 11:27:00,
2013-01-11 06:32:00,58.3,55.7,30.23,South,187,0.0,0.0,91,0.00,FEW,OVC,0.00,WeatherDisplay:10.37,2013-01-11 11:32:00,
2013-01-11 06:37:00,58.1,55.5,30.24,South,187,0.0,0.0,91,0.00,FEW,OVC,0.00,WeatherDisplay:10.37,2013-01-11 11:37:00,
2013-01-11 06:42:00,58.0,55.4,30.23,South,187,0.0,0.0,91,0.00,FEW,OVC,0.00,WeatherDisplay:10.37,2013-01-11 11:42:00,
2013-01-11 06:47:00,57.8,54.9,30.24,South,187,0.0,0.0,90,0.00,FEW,OVC,0.00,WeatherDisplay:10.37,2013-01-11 11:47:00,
2013-01-11 06:52:00,57.7,55.1,30.24,South,187,0.0,0.0,91,0.00,FEW,OVC,0.00,WeatherDisplay:10.37,2013-01-11 11:52:00,
2013-01-11 06:57:00,57.6,55.0,30.23,South,187,0.0,0.0,91,0.00,FEW,OVC,0.00,WeatherDisplay:10.37,2013-01-11 11:57:00,
2013-01-11 07:02:00,57.6,55.0,30.24,South,187,0.0,0.0,91,0.00,FEW,OVC,0.00,WeatherDisplay:10.37,2013-01-11 12:02:00,
2013-01-11 07:07:00,57.5,54.9,30.23,South,187,0.0,0.0,91,0.00,FEW,OVC,0.00,WeatherDisplay:10.37,2013-01-11 12:07:00,
2013-01-11 07:12:00,57.4,54.8,30.24,South,187,0.0,0.0,91,0.00,FEW,OVC,0.00,WeatherDisplay:10.37,2013-01-11 12:12:00,
2013-01-11 07:17:00,57.3,54.7,30.24,South,187,0.0,0.0,91,0.00,FEW,OVC,0.00,WeatherDisplay:10.37,2013-01-11 12:17:00,
2013-01-11 07:22:00,57.3,54.7,30.24,South,187,0.0,0.0,91,0.00,FEW,OVC,0.00,WeatherDisplay:10.37,2013-01-11 12:22:00,
2013-01-11 07:27:00,57.2,54.6,30.24,South,187,1.1,0.0,91,0.00,FEW,OVC,0.00,WeatherDisplay:10.37,2013-01-11 12:27:00,
2013-01-11 07:32:00,57.2,54.6,30.24,South,187,0.0,0.0,91,0.00,FEW,OVC,0.00,WeatherDisplay:10.37,2013-01-11 12:32:00,
2013-01-11 07:37:00,57.2,54.6,30.24,South,187,0.0,0.0,91,0.00,FEW,OVC,0.00,WeatherDisplay:10.37,2013-01-11 12:37:00,
2013-01-11 07:42:00,57.1,54.5,30.24,South,187,0.0,0.0,91,0.00,FEW,OVC,0.00,WeatherDisplay:10.37,2013-01-11 12:42:00,
2013-01-11 07:47:00,57.1,54.5,30.25,South,187,0.0,0.0,91,0.00,FEW,OVC,0.00,WeatherDisplay:10.37,2013-01-11 12:47:00,
2013-01-11 07:52:00,57.2,54.6,30.25,South,187,1.1,0.0,91,0.00,FEW,OVC,0.00,WeatherDisplay:10.37,2013-01-11 12:52:00,
2013-01-11 07:57:00,57.2,54.6,30.25,South,187,0.0,0.0,91,0.00,FEW,OVC,0.00,WeatherDisplay:10.37,2013-01-11 12:57:00,
2013-01-11 08:02:00,57.3,54.7,30.25,South,187,0.0,0.0,91,0.00,FEW,OVC,0.00,WeatherDisplay:10.37,2013-01-11 13:02:00,
2013-01-11 08:07:00,57.5,54.9,30.26,South,187,0.0,0.0,91,0.00,FEW,OVC,0.00,WeatherDisplay:10.37,2013-01-11 13:07:00,
2013-01-11 08:12:00,58.0,55.4,30.26,South,187,0.0,0.0,91,0.00,FEW,OVC,0.00,WeatherDisplay:10.37,2013-01-11 13:12:00,
2013-01-11 08:17:00,58.3,55.7,30.26,South,187,0.0,0.0,91,0.00,CLR,OVC,0.00,WeatherDisplay:10.37,2013-01-11 13:17:00,
2013-01-11 08:22:00,58.6,56.0,30.27,South,187,0.0,0.0,91,0.00,CLR,OVC,0.00,WeatherDisplay:10.37,2013-01-11 13:22:00,
2013-01-11 08:27:00,59.0,56.4,30.27,South,187,0.0,0.0,91,0.00,CLR,OVC,0.00,WeatherDisplay:10.37,2013-01-11 13:27:00,
2013-01-11 08:32:00,59.2,56.6,30.27,South,187,0.0,0.0,91,0.00,CLR,OVC,0.00,WeatherDisplay:10.37,2013-01-11 13:32:00,
2013-01-11 08:37:00,59.7,57.1,30.27,South,187,0.0,0.0,91,0.00,CLR,OVC,0.00,WeatherDisplay:10.37,2013-01-11 13:37:00,
2013-01-11 08:42:00,60.1,57.5,30.27,South,187,0.0,0.1,91,0.00,CLR,OVC,0.00,WeatherDisplay:10.37,2013-01-11 13:42:00,
2013-01-11 08:47:00,60.5,57.9,30.27,South,187,0.0,0.0,91,0.00,CLR,OVC,0.00,WeatherDisplay:10.37,2013-01-11 13:47:00,
2013-01-11 08:52:00,61.0,58.4,30.27,South,187,0.0,0.0,91,0.00,CLR,OVC,0.00,WeatherDisplay:10.37,2013-01-11 13:52:00,
2013-01-11 08:57:00,61.4,58.7,30.27,South,189,0.0,0.0,91,0.00,CLR,OVC,0.00,WeatherDisplay:10.37,2013-01-11 13:57:00,
2013-01-11 09:02:00,61.8,59.5,30.27,South,189,0.0,0.0,92,0.00,FEW,OVC,0.00,WeatherDisplay:10.37,2013-01-11 14:02:00,
2013-01-11 09:07:00,62.5,60.1,30.27,South,186,1.1,0.0,92,0.00,FEW,OVC,0.00,WeatherDisplay:10.37,2013-01-11 14:07:00,
2013-01-11 09:12:00,62.9,60.5,30.27,South,187,0.0,0.0,92,0.00,FEW,OVC,0.00,WeatherDisplay:10.37,2013-01-11 14:12:00,
2013-01-11 09:17:00,63.3,60.9,30.27,South,187,0.0,0.0,92,0.00,FEW,OVC,0.00,WeatherDisplay:10.37,2013-01-11 14:17:00,
2013-01-11 09:22:00,63.7,61.3,30.27,South,187,0.0,0.0,92,0.00,FEW,OVC,0.00,WeatherDisplay:10.37,2013-01-11 14:22:00,
2013-01-11 09:27:00,64.1,61.7,30.28,South,187,0.0,0.0,92,0.00,FEW,OVC,0.00,WeatherDisplay:10.37,2013-01-11 14:27:00,
2013-01-11 09:32:00,64.8,62.4,30.28,South,187,0.0,0.0,92,0.00,FEW,OVC,0.00,WeatherDisplay:10.37,2013-01-11 14:32:00,
2013-01-11 09:37:00,65.4,63.0,30.28,South,187,0.0,0.0,92,0.00,FEW,OVC,0.00,WeatherDisplay:10.37,2013-01-11 14:37:00,
2013-01-11 09:42:00,65.9,63.5,30.27,South,187,0.0,0.0,92,0.00,FEW,OVC,0.00,WeatherDisplay:10.37,2013-01-11 14:42:00,
2013-01-11 09:47:00,66.3,63.9,30.27,South,187,0.0,0.0,92,0.00,FEW,OVC,0.00,WeatherDisplay:10.37,2013-01-11 14:47:00,
2013-01-11 09:52:00,67.0,64.6,30.28,South,189,0.0,0.0,92,0.00,FEW,OVC,0.00,WeatherDisplay:10.37,2013-01-11 14:52:00,
2013-01-11 09:57:00,67.6,65.2,30.28,SSW,192,0.0,0.0,92,0.00,FEW,OVC,0.00,WeatherDisplay:10.37,2013-01-11 14:57:00,
2013-01-11 10:02:00,68.6,66.2,30.28,SE,135,1.1,1.1,92,0.00,FEW,OVC,0.00,WeatherDisplay:10.37,2013-01-11 15:02:00,
2013-01-11 10:07:00,69.5,67.1,30.27,South,171,2.3,2.3,92,0.00,FEW,OVC,0.00,WeatherDisplay:10.37,2013-01-11 15:07:00,
2013-01-11 10:12:00,70.2,67.8,30.27,South,170,2.3,2.3,92,0.00,FEW,OVC,0.00,WeatherDisplay:10.37,2013-01-11 15:12:00,
2013-01-11 10:14:00,70.6,68.2,30.27,South,187,1.1,1.1,92,0.00,FEW,OVC,0.00,WeatherDisplay:10.37,2013-01-11 15:14:00,
2013-01-11 10:17:00,70.6,68.2,30.27,South,187,1.1,1.1,92,0.00,FEW,OVC,0.00,WeatherDisplay:10.37,2013-01-11 15:17:00,
2013-01-11 10:22:00,70.6,68.2,30.27,South,187,1.1,1.1,92,0.00,FEW,OVC,0.00,WeatherDisplay:10.37,2013-01-11 15:22:00,
2013-01-11 10:27:00,72.4,69.3,30.26,ENE,77,1.1,1.1,90,0.00,FEW,OVC,0.00,WeatherDisplay:10.37,2013-01-11 15:27:00,
2013-01-11 10:32:00,72.9,69.1,30.26,SSE,159,2.3,2.3,88,0.00,CLR,OVC,0.00,WeatherDisplay:10.37,2013-01-11 15:32:00,
2013-01-11 10:37:00,73.9,68.8,30.26,SSE,165,3.4,3.4,84,0.00,CLR,OVC,0.00,WeatherDisplay:10.37,2013-01-11 15:37:00,
2013-01-11 10:42:00,74.6,68.4,30.26,SSW,192,1.1,0.0,81,0.00,CLR,OVC,0.00,WeatherDisplay:10.37,2013-01-11 15:42:00,
2013-01-11 10:47:00,75.1,68.1,30.26,SSE,155,0.0,0.3,79,0.00,CLR,OVC,0.00,WeatherDisplay:10.37,2013-01-11 15:47:00,
2013-01-11 10:52:00,75.6,68.3,30.25,South,182,3.4,3.4,78,0.00,CLR,OVC,0.00,WeatherDisplay:10.37,2013-01-11 15:52:00,
2013-01-11 10:57:00,75.9,67.8,30.25,SSE,161,2.3,2.3,76,0.00,CLR,OVC,0.00,WeatherDisplay:10.37,2013-01-11 15:57:00,
2013-01-11 11:02:00,76.3,67.8,30.25,SSE,153,2.3,2.3,75,0.00,CLR,OVC,0.00,WeatherDisplay:10.37,2013-01-11 16:02:00,
2013-01-11 11:07:00,76.3,67.0,30.25,SSE,165,4.6,4.6,73,0.00,CLR,OVC,0.00,WeatherDisplay:10.37,2013-01-11 16:07:00,
2013-01-11 11:13:00,76.5,66.8,30.25,SSE,166,5.0,5.0,72,0.00,CLR,OVC,0.00,WeatherDisplay:10.37,2013-01-11 16:13:00,
2013-01-11 11:18:00,76.9,66.8,30.25,South,177,2.3,2.3,71,0.00,CLR,OVC,0.00,WeatherDisplay:10.37,2013-01-11 16:18:00,
2013-01-11 11:23:00,77.0,67.3,30.24,SSE,161,1.1,1.1,72,0.00,CLR,OVC,0.00,WeatherDisplay:10.37,2013-01-11 16:23:00,
2013-01-11 11:28:00,77.3,66.7,30.24,SSE,154,3.0,3.0,70,0.00,CLR,OVC,0.00,WeatherDisplay:10.37,2013-01-11 16:28:00,
2013-01-11 11:33:00,77.1,67.4,30.23,SSE,163,2.3,2.3,72,0.00,CLR,OVC,0.00,WeatherDisplay:10.37,2013-01-11 16:33:00,
2013-01-11 11:38:00,77.1,67.0,30.23,SSE,168,2.3,0.0,71,0.00,CLR,OVC,0.00,WeatherDisplay:10.37,2013-01-11 16:38:00,
2013-01-11 11:43:00,77.3,66.7,30.23,South,170,2.3,2.3,70,0.00,CLR,OVC,0.00,WeatherDisplay:10.37,2013-01-11 16:43:00,
2013-01-11 11:48:00,77.2,65.8,30.23,ESE,117,1.1,1.1,68,0.00,CLR,OVC,0.00,WeatherDisplay:10.37,2013-01-11 16:48:00,
2013-01-11 11:53:00,77.5,66.1,30.22,SSW,194,3.4,3.4,68,0.00,CLR,OVC,0.00,WeatherDisplay:10.37,2013-01-11 16:53:00,
2013-01-11 11:58:00,77.8,66.4,30.22,SSE,167,3.4,3.4,68,0.00,CLR,OVC,0.00,WeatherDisplay:10.37,2013-01-11 16:58:00,
2013-01-11 12:03:00,78.0,65.3,30.22,SSE,156,3.4,3.4,65,0.00,CLR,OVC,0.00,WeatherDisplay:10.37,2013-01-11 17:03:00,
2013-01-11 12:08:00,78.0,66.2,30.22,SSE,161,2.0,2.0,67,0.00,CLR,OVC,0.00,WeatherDisplay:10.37,2013-01-11 17:08:00,
2013-01-11 12:13:00,77.7,66.3,30.22,SSE,156,2.3,2.3,68,0.00,CLR,OVC,0.00,WeatherDisplay:10.37,2013-01-11 17:13:00,
2013-01-11 12:18:00,77.4,66.8,30.22,SSE,161,2.3,2.3,70,0.00,CLR,OVC,0.00,WeatherDisplay:10.37,2013-01-11 17:18:00,
2013-01-11 12:23:00,77.2,67.1,30.21,South,182,3.4,3.4,71,0.00,CLR,OVC,0.00,WeatherDisplay:10.37,2013-01-11 17:23:00,
2013-01-11 12:28:00,77.9,66.5,30.21,SSE,157,3.4,3.4,68,0.00,CLR,OVC,0.00,WeatherDisplay:10.37,2013-01-11 17:28:00,
2013-01-11 12:33:00,78.6,65.8,30.20,SSE,161,2.3,2.3,65,0.00,CLR,OVC,0.00,WeatherDisplay:10.37,2013-01-11 17:33:00,
2013-01-11 12:38:00,79.2,66.4,30.20,SSE,152,2.3,2.3,65,0.00,CLR,OVC,0.00,WeatherDisplay:10.37,2013-01-11 17:38:00,
2013-01-11 12:43:00,79.3,66.5,30.20,SE,142,2.3,2.3,65,0.00,CLR,OVC,0.00,WeatherDisplay:10.37,2013-01-11 17:43:00,
2013-01-11 12:48:00,78.8,66.5,30.20,South,169,2.3,2.3,66,0.00,CLR,OVC,0.00,WeatherDisplay:10.37,2013-01-11 17:48:00,
2013-01-11 12:53:00,78.5,66.6,30.20,SSE,168,3.4,3.4,67,0.00,CLR,OVC,0.00,WeatherDisplay:10.37,2013-01-11 17:53:00,
2013-01-11 12:58:00,78.6,66.3,30.20,SSE,156,2.3,2.3,66,0.00,CLR,OVC,0.00,WeatherDisplay:10.37,2013-01-11 17:58:00,
2013-01-11 13:03:00,78.9,66.1,30.19,South,173,3.4,3.4,65,0.00,FEW,OVC,0.00,WeatherDisplay:10.37,2013-01-11 18:03:00,
2013-01-11 13:08:00,79.0,66.7,30.19,SSE,167,2.3,0.0,66,0.00,FEW,OVC,0.00,WeatherDisplay:10.37,2013-01-11 18:08:00,
2013-01-11 13:13:00,79.2,65.5,30.19,South,175,4.6,4.6,63,0.00,FEW,OVC,0.00,WeatherDisplay:10.37,2013-01-11 18:13:00,
2013-01-11 13:18:00,78.7,65.0,30.18,SSE,161,3.4,3.4,63,0.00,FEW,OVC,0.00,WeatherDisplay:10.37,2013-01-11 18:18:00,
2013-01-11 13:23:00,78.8,65.1,30.18,SSW,194,3.4,3.4,63,0.00,FEW,OVC,0.00,WeatherDisplay:10.37,2013-01-11 18:23:00,
2013-01-11 13:28:00,79.2,66.4,30.18,SSE,158,1.1,1.1,65,0.00,FEW,OVC,0.00,WeatherDisplay:10.37,2013-01-11 18:28:00,
2013-01-11 13:33:00,79.0,65.3,30.18,South,179,3.4,3.4,63,0.00,FEW,OVC,0.00,WeatherDisplay:10.37,2013-01-11 18:33:00,
2013-01-11 13:38:00,78.7,65.5,30.18,SSE,167,2.3,2.3,64,0.00,FEW,OVC,0.00,WeatherDisplay:10.37,2013-01-11 18:38:00,
2013-01-11 13:43:00,78.7,65.9,30.18,SSE,168,2.3,2.3,65,0.00,FEW,OVC,0.00,WeatherDisplay:10.37,2013-01-11 18:43:00,
2013-01-11 13:48:00,78.7,65.0,30.18,South,172,2.3,2.3,63,0.00,FEW,OVC,0.00,WeatherDisplay:10.37,2013-01-11 18:48:00,
2013-01-11 13:53:00,78.7,65.5,30.18,SSE,156,2.3,2.3,64,0.00,FEW,OVC,0.00,WeatherDisplay:10.37,2013-01-11 18:53:00,
2013-01-11 13:58:00,78.6,65.8,30.18,SSE,157,0.0,0.0,65,0.00,FEW,OVC,0.00,WeatherDisplay:10.37,2013-01-11 18:58:00,
2013-01-11 14:03:00,78.5,65.8,30.17,SSE,167,1.1,1.1,65,0.00,CLR,OVC,0.00,WeatherDisplay:10.37,2013-01-11 19:03:00,
2013-01-11 14:08:00,78.5,65.8,30.17,SSE,163,0.0,0.0,65,0.00,CLR,OVC,0.00,WeatherDisplay:10.37,2013-01-11 19:08:00,
2013-01-11 14:13:00,78.5,65.8,30.17,South,180,1.1,1.1,65,0.00,CLR,OVC,0.00,WeatherDisplay:10.37,2013-01-11 19:13:00,
2013-01-11 14:18:00,78.9,65.7,30.17,SSE,161,1.1,1.1,64,0.00,CLR,OVC,0.00,WeatherDisplay:10.37,2013-01-11 19:18:00,
2013-01-11 14:23:00,79.5,65.8,30.17,SSE,168,3.4,3.4,63,0.00,CLR,OVC,0.00,WeatherDisplay:10.37,2013-01-11 19:23:00,
2013-01-11 14:28:00,79.5,65.3,30.17,South,184,2.3,2.3,62,0.00,CLR,OVC,0.00,WeatherDisplay:10.37,2013-01-11 19:28:00,
2013-01-11 14:33:00,79.3,65.1,30.17,SSE,165,2.3,2.3,62,0.00,CLR,OVC,0.00,WeatherDisplay:10.37,2013-01-11 19:33:00,
2013-01-11 14:38:00,79.2,65.5,30.17,SSE,168,1.1,1.1,63,0.00,CLR,OVC,0.00,WeatherDisplay:10.37,2013-01-11 19:38:00,
2013-01-11 14:45:00,79.4,66.2,30.17,SSE,167,0.0,2.0,64,0.00,CLR,OVC,0.00,WeatherDisplay:10.37,2013-01-11 19:45:00,
2013-01-11 14:50:00,79.4,66.2,30.17,ENE,69,1.1,1.1,64,0.00,CLR,OVC,0.00,WeatherDisplay:10.37,2013-01-11 19:50:00,
2013-01-11 14:55:00,79.2,66.0,30.17,ESE,106,0.0,0.0,64,0.00,CLR,OVC,0.00,WeatherDisplay:10.37,2013-01-11 19:55:00,
2013-01-11 15:00:00,79.1,66.3,30.17,ESE,109,1.1,0.0,65,0.00,CLR,OVC,0.00,WeatherDisplay:10.37,2013-01-11 20:00:00,
2013-01-11 15:05:00,79.0,65.8,30.17,SSE,167,2.0,2.0,64,0.00,CLR,OVC,0.00,WeatherDisplay:10.37,2013-01-11 20:05:00,
2013-01-11 15:10:00,79.0,66.2,30.17,South,173,0.0,0.0,65,0.00,CLR,OVC,0.00,WeatherDisplay:10.37,2013-01-11 20:10:00,
2013-01-11 15:15:00,78.9,66.1,30.17,South,173,0.0,0.0,65,0.00,CLR,OVC,0.00,WeatherDisplay:10.37,2013-01-11 20:15:00,
2013-01-11 15:20:00,78.8,66.0,30.17,South,171,1.1,1.1,65,0.00,CLR,OVC,0.00,WeatherDisplay:10.37,2013-01-11 20:20:00,
2013-01-11 15:25:00,79.0,66.2,30.17,South,187,2.3,2.3,65,0.00,CLR,OVC,0.00,WeatherDisplay:10.37,2013-01-11 20:25:00,
2013-01-11 15:30:00,79.6,66.8,30.17,SSE,154,3.4,3.4,65,0.00,CLR,OVC,0.00,WeatherDisplay:10.37,2013-01-11 20:30:00,
2013-01-11 15:35:00,79.8,67.0,30.17,South,173,2.3,2.3,65,0.00,CLR,OVC,0.00,WeatherDisplay:10.37,2013-01-11 20:35:00,
2013-01-11 15:40:00,79.8,67.0,30.17,South,177,0.0,0.0,65,0.00,CLR,OVC,0.00,WeatherDisplay:10.37,2013-01-11 20:40:00,
2013-01-11 15:45:00,79.5,66.7,30.17,South,176,1.1,1.1,65,0.00,CLR,OVC,0.00,WeatherDisplay:10.37,2013-01-11 20:45:00,
2013-01-11 15:50:00,79.0,66.7,30.17,SSE,168,1.1,0.0,66,0.00,CLR,OVC,0.00,WeatherDisplay:10.37,2013-01-11 20:50:00,
2013-01-11 15:55:00,78.7,66.4,30.17,South,169,1.1,1.1,66,0.00,CLR,OVC,0.00,WeatherDisplay:10.37,2013-01-11 20:55:00,
2013-01-11 16:01:00,78.5,66.2,30.17,SSE,168,1.1,1.1,66,0.00,CLR,OVC,0.00,WeatherDisplay:10.37,2013-01-11 21:01:00,
2013-01-11 16:06:00,78.4,66.5,30.17,SSE,167,1.1,0.0,67,0.00,CLR,OVC,0.00,WeatherDisplay:10.37,2013-01-11 21:06:00,
2013-01-11 16:11:00,78.2,66.8,30.17,SSE,167,0.0,0.0,68,0.00,CLR,OVC,0.00,WeatherDisplay:10.37,2013-01-11 21:11:00,
2013-01-11 16:16:00,78.1,66.7,30.17,SSE,168,0.0,0.0,68,0.00,CLR,OVC,0.00,WeatherDisplay:10.37,2013-01-11 21:16:00,
2013-01-11 16:21:00,78.1,66.7,30.16,SSE,167,0.0,0.3,68,0.00,CLR,OVC,0.00,WeatherDisplay:10.37,2013-01-11 21:21:00,
2013-01-11 16:28:00,78.3,67.3,30.17,ESE,121,0.0,0.0,69,0.00,CLR,OVC,0.00,WeatherDisplay:10.37,2013-01-11 21:28:00,
2013-01-11 16:33:00,78.4,67.4,30.17,SSE,156,0.0,0.0,69,0.00,CLR,OVC,0.00,WeatherDisplay:10.37,2013-01-11 21:33:00,
2013-01-11 16:39:00,78.3,66.9,30.17,SSE,166,2.3,0.0,68,0.00,CLR,OVC,0.00,WeatherDisplay:10.37,2013-01-11 21:39:00,
2013-01-11 16:44:00,78.0,66.6,30.17,SSE,166,1.1,0.0,68,0.00,CLR,OVC,0.00,WeatherDisplay:10.37,2013-01-11 21:44:00,
2013-01-11 16:49:00,77.8,66.8,30.17,SSE,166,0.0,0.0,69,0.00,CLR,OVC,0.00,WeatherDisplay:10.37,2013-01-11 21:49:00,
2013-01-11 16:54:00,77.5,66.9,30.17,SSE,166,0.0,0.0,70,0.00,CLR,OVC,0.00,WeatherDisplay:10.37,2013-01-11 21:54:00,
2013-01-11 16:59:00,77.1,67.0,30.17,SSE,166,0.0,0.0,71,0.00,CLR,OVC,0.00,WeatherDisplay:10.37,2013-01-11 21:59:00,
2013-01-11 17:04:00,76.8,66.7,30.17,SSE,166,0.0,0.0,71,0.00,CLR,OVC,0.00,WeatherDisplay:10.37,2013-01-11 22:04:00,
2013-01-11 17:09:00,76.5,66.8,30.17,SSE,166,1.1,1.1,72,0.00,CLR,OVC,0.00,WeatherDisplay:10.37,2013-01-11 22:09:00,
2013-01-11 17:15:00,76.3,66.6,30.17,SSE,167,1.1,1.1,72,0.00,CLR,OVC,0.00,WeatherDisplay:10.37,2013-01-11 22:15:00,
2013-01-11 17:20:00,76.1,66.8,30.17,SSE,167,1.1,0.0,73,0.00,CLR,OVC,0.00,WeatherDisplay:10.37,2013-01-11 22:20:00,
2013-01-11 17:25:00,76.0,66.3,30.17,SSE,167,0.0,0.0,72,0.00,CLR,OVC,0.00,WeatherDisplay:10.37,2013-01-11 22:25:00,
2013-01-11 17:30:00,75.8,66.5,30.17,SSE,167,0.0,0.0,73,0.00,CLR,OVC,0.00,WeatherDisplay:10.37,2013-01-11 22:30:00,
2013-01-11 17:35:00,75.5,65.8,30.17,SSE,167,0.0,0.0,72,0.00,CLR,OVC,0.00,WeatherDisplay:10.37,2013-01-11 22:35:00,
2013-01-11 17:40:00,75.1,65.9,30.17,SSE,167,0.0,0.0,73,0.00,CLR,OVC,0.00,WeatherDisplay:10.37,2013-01-11 22:40:00,
2013-01-11 17:45:00,74.8,66.0,30.17,SSE,168,0.0,0.0,74,0.00,CLR,OVC,0.00,WeatherDisplay:10.37,2013-01-11 22:45:00,
2013-01-11 17:50:00,74.4,65.6,30.17,SSE,167,0.0,0.4,74,0.00,CLR,OVC,0.00,WeatherDisplay:10.37,2013-01-11 22:50:00,
2013-01-11 17:55:00,74.0,65.2,30.17,SSE,167,0.0,0.0,74,0.00,CLR,OVC,0.00,WeatherDisplay:10.37,2013-01-11 22:55:00,
2013-01-11 18:00:00,73.5,65.5,30.17,SSE,167,0.0,0.0,76,0.00,CLR,OVC,0.00,WeatherDisplay:10.37,2013-01-11 23:00:00,
2013-01-11 18:05:00,73.0,65.4,30.17,SSE,167,0.0,0.0,77,0.00,CLR,OVC,0.00,WeatherDisplay:10.37,2013-01-11 23:05:00,
2013-01-11 18:10:00,72.4,65.2,30.17,SSE,168,0.0,0.0,78,0.00,CLR,OVC,0.00,WeatherDisplay:10.37,2013-01-11 23:10:00,
2013-01-11 18:15:00,72.0,64.8,30.17,SSE,167,0.0,0.0,78,0.00,CLR,OVC,0.00,WeatherDisplay:10.37,2013-01-11 23:15:00,
2013-01-11 18:20:00,71.7,64.8,30.17,SSE,167,0.0,0.0,79,0.00,CLR,OVC,0.00,WeatherDisplay:10.37,2013-01-11 23:20:00,
2013-01-11 18:25:00,71.4,64.5,30.17,SSE,168,0.0,0.0,79,0.00,CLR,OVC,0.00,WeatherDisplay:10.37,2013-01-11 23:25:00,
2013-01-11 18:30:00,71.1,64.6,30.17,SSE,167,0.0,0.0,80,0.00,CLR,OVC,0.00,WeatherDisplay:10.37,2013-01-11 23:30:00,
2013-01-11 18:35:00,70.9,64.8,30.17,SSE,167,0.0,0.0,81,0.00,CLR,OVC,0.00,WeatherDisplay:10.37,2013-01-11 23:35:00,
2013-01-11 18:40:00,70.7,64.6,30.18,SSE,167,0.0,0.0,81,0.00,CLR,OVC,0.00,WeatherDisplay:10.37,2013-01-11 23:40:00,
2013-01-11 18:45:00,70.6,64.8,30.18,SSE,167,0.0,0.0,82,0.00,CLR,OVC,0.00,WeatherDisplay:10.37,2013-01-11 23:45:00,
2013-01-11 18:50:00,70.5,64.7,30.18,SSE,167,0.0,0.0,82,0.00,CLR,OVC,0.00,WeatherDisplay:10.37,2013-01-11 23:50:00,
2013-01-11 18:55:00,70.3,64.9,30.18,SSE,167,0.0,0.0,83,0.00,CLR,OVC,0.00,WeatherDisplay:10.37,2013-01-11 23:55:00,
2013-01-11 19:00:00,70.2,64.8,30.18,SSE,167,0.0,0.0,83,0.00,CLR,OVC,0.00,WeatherDisplay:10.37,2013-01-12 00:00:00,
2013-01-11 19:05:00,70.0,64.9,30.18,SSE,168,0.0,0.0,84,0.00,CLR,OVC,0.00,WeatherDisplay:10.37,2013-01-12 00:05:00,
2013-01-11 19:10:00,69.9,64.8,30.18,SSE,167,0.0,0.0,84,0.00,CLR,OVC,0.00,WeatherDisplay:10.37,2013-01-12 00:10:00,
2013-01-11 19:15:00,69.7,64.6,30.18,SSE,168,0.0,0.0,84,0.00,CLR,OVC,0.00,WeatherDisplay:10.37,2013-01-12 00:15:00,
2013-01-11 19:20:00,69.5,64.8,30.18,SSE,167,0.0,0.0,85,0.00,CLR,OVC,0.00,WeatherDisplay:10.37,2013-01-12 00:20:00,
2013-01-11 19:25:00,69.3,64.6,30.18,SSE,168,0.0,0.0,85,0.00,CLR,OVC,0.00,WeatherDisplay:10.37,2013-01-12 00:25:00,
2013-01-11 19:30:00,69.2,64.8,30.18,SSE,167,0.0,0.0,86,0.00,CLR,OVC,0.00,WeatherDisplay:10.37,2013-01-12 00:30:00,
2013-01-11 19:35:00,69.0,64.6,30.18,SSE,167,0.0,0.0,86,0.00,CLR,OVC,0.00,WeatherDisplay:10.37,2013-01-12 00:35:00,
2013-01-11 19:40:00,68.9,64.5,30.18,SSE,167,0.0,0.0,86,0.00,CLR,OVC,0.00,WeatherDisplay:10.37,2013-01-12 00:40:00,
2013-01-11 19:45:00,68.8,64.4,30.18,SSE,168,0.0,0.0,86,0.00,CLR,OVC,0.00,WeatherDisplay:10.37,2013-01-12 00:45:00,
2013-01-11 19:50:00,68.6,64.6,30.18,SSE,168,0.0,0.0,87,0.00,CLR,OVC,0.00,WeatherDisplay:10.37,2013-01-12 00:50:00,
2013-01-11 19:55:00,68.4,64.4,30.19,SSE,167,0.0,0.0,87,0.00,CLR,OVC,0.00,WeatherDisplay:10.37,2013-01-12 00:55:00,
2013-01-11 20:00:00,68.3,64.3,30.19,SSE,167,0.0,0.0,87,0.00,CLR,OVC,0.00,WeatherDisplay:10.37,2013-01-12 01:00:00,
2013-01-11 20:05:00,68.1,64.1,30.19,SSE,168,0.0,0.0,87,0.00,CLR,OVC,0.00,WeatherDisplay:10.37,2013-01-12 01:05:00,
2013-01-11 20:10:00,68.0,64.3,30.19,SSE,167,0.0,0.0,88,0.00,CLR,OVC,0.00,WeatherDisplay:10.37,2013-01-12 01:10:00,
2013-01-11 20:15:00,67.8,64.1,30.18,SSE,167,0.0,0.0,88,0.00,CLR,OVC,0.00,WeatherDisplay:10.37,2013-01-12 01:15:00,
2013-01-11 20:20:00,67.7,64.0,30.18,SSE,167,0.0,0.0,88,0.00,CLR,OVC,0.00,WeatherDisplay:10.37,2013-01-12 01:20:00,
2013-01-11 20:25:00,67.6,63.9,30.19,SSE,167,0.0,0.0,88,0.00,CLR,OVC,0.00,WeatherDisplay:10.37,2013-01-12 01:25:00,
2013-01-11 20:30:00,67.4,63.7,30.19,SSE,167,0.0,0.0,88,0.00,CLR,OVC,0.00,WeatherDisplay:10.37,2013-01-12 01:30:00,
2013-01-11 20:35:00,67.2,63.5,30.19,SSE,167,0.0,0.0,88,0.00,CLR,OVC,0.00,WeatherDisplay:10.37,2013-01-12 01:35:00,
2013-01-11 20:39:00,67.1,63.4,30.19,SSE,167,0.0,0.0,88,0.00,CLR,OVC,0.00,WeatherDisplay:10.37,2013-01-12 01:39:00,
2013-01-11 20:40:00,67.1,63.4,30.19,SSE,167,0.0,0.0,88,0.00,CLR,OVC,0.00,WeatherDisplay:10.37,2013-01-12 01:40:00,
2013-01-11 20:45:00,67.1,63.4,30.19,SSE,167,0.0,0.0,88,0.00,CLR,OVC,0.00,WeatherDisplay:10.37,2013-01-12 01:45:00,
2013-01-11 20:50:00,67.1,63.4,30.19,SSE,167,0.0,0.0,88,0.00,CLR,OVC,0.00,WeatherDisplay:10.37,2013-01-12 01:50:00,
2013-01-11 20:55:00,66.4,62.7,30.19,SSE,167,0.0,0.0,88,0.00,CLR,OVC,0.00,WeatherDisplay:10.37,2013-01-12 01:55:00,
2013-01-11 21:00:00,66.3,63.0,30.19,SSE,167,0.0,0.0,89,0.00,CLR,OVC,0.00,WeatherDisplay:10.37,2013-01-12 02:00:00,
2013-01-11 21:05:00,66.1,62.8,30.19,SSE,167,0.0,0.0,89,0.00,CLR,OVC,0.00,WeatherDisplay:10.37,2013-01-12 02:05:00,
2013-01-11 21:10:00,66.1,62.8,30.19,SSE,167,0.0,0.0,89,0.00,CLR,OVC,0.00,WeatherDisplay:10.37,2013-01-12 02:10:00,
2013-01-11 21:15:00,66.3,63.0,30.19,SSE,167,1.1,0.0,89,0.00,CLR,OVC,0.00,WeatherDisplay:10.37,2013-01-12 02:15:00,
2013-01-11 21:20:00,66.3,63.0,30.19,SSE,167,0.0,0.0,89,0.00,CLR,OVC,0.00,WeatherDisplay:10.37,2013-01-12 02:20:00,
2013-01-11 21:25:00,66.1,62.8,30.19,SSE,167,0.0,0.0,89,0.00,CLR,OVC,0.00,WeatherDisplay:10.37,2013-01-12 02:25:00,
2013-01-11 21:30:00,65.9,62.6,30.19,SSE,167,0.0,0.0,89,0.00,CLR,OVC,0.00,WeatherDisplay:10.37,2013-01-12 02:30:00,
2013-01-11 21:35:00,65.8,62.5,30.18,SSE,167,0.0,0.0,89,0.00,CLR,OVC,0.00,WeatherDisplay:10.37,2013-01-12 02:35:00,
2013-01-11 21:40:00,65.6,62.3,30.19,SSE,168,0.0,0.0,89,0.00,CLR,OVC,0.00,WeatherDisplay:10.37,2013-01-12 02:40:00,
2013-01-11 21:45:00,65.4,62.1,30.19,SSE,167,0.0,0.0,89,0.00,CLR,OVC,0.00,WeatherDisplay:10.37,2013-01-12 02:45:00,
2013-01-11 21:50:00,65.2,61.9,30.19,SSE,167,0.0,0.0,89,0.00,CLR,OVC,0.00,WeatherDisplay:10.37,2013-01-12 02:50:00,
2013-01-11 21:55:00,65.0,61.7,30.19,SSE,167,0.0,0.0,89,0.00,CLR,OVC,0.00,WeatherDisplay:10.37,2013-01-12 02:55:00,
2013-01-11 22:00:00,64.6,61.3,30.19,SSE,167,0.0,0.0,89,0.00,CLR,OVC,0.00,WeatherDisplay:10.37,2013-01-12 03:00:00,
2013-01-11 22:05:00,64.5,61.2,30.19,SSE,167,0.0,0.0,89,0.00,CLR,OVC,0.00,WeatherDisplay:10.37,2013-01-12 03:05:00,
2013-01-11 22:10:00,64.5,61.2,30.19,SSE,167,0.0,0.0,89,0.00,CLR,OVC,0.00,WeatherDisplay:10.37,2013-01-12 03:10:00,
2013-01-11 22:15:00,64.3,61.0,30.19,SSE,168,0.0,0.0,89,0.00,CLR,OVC,0.00,WeatherDisplay:10.37,2013-01-12 03:15:00,
2013-01-11 22:20:00,64.1,60.8,30.19,SSE,167,0.0,0.0,89,0.00,CLR,OVC,0.00,WeatherDisplay:10.37,2013-01-12 03:20:00,
2013-01-11 22:25:00,64.0,60.7,30.19,SSE,167,0.0,0.0,89,0.00,CLR,OVC,0.00,WeatherDisplay:10.37,2013-01-12 03:25:00,
2013-01-11 22:30:00,63.9,60.6,30.19,SSE,167,0.0,0.0,89,0.00,CLR,OVC,0.00,WeatherDisplay:10.37,2013-01-12 03:30:00,
2013-01-11 22:35:00,63.7,60.4,30.20,SSE,167,0.0,0.0,89,0.00,CLR,OVC,0.00,WeatherDisplay:10.37,2013-01-12 03:35:00,
2013-01-11 22:40:00,63.6,60.3,30.20,SSE,167,0.0,0.0,89,0.00,CLR,OVC,0.00,WeatherDisplay:10.37,2013-01-12 03:40:00,
2013-01-11 22:45:00,63.4,60.1,30.20,SSE,168,0.0,0.0,89,0.00,CLR,OVC,0.00,WeatherDisplay:10.37,2013-01-12 03:45:00,
2013-01-11 22:50:00,63.4,60.1,30.20,SSE,167,0.0,0.0,89,0.00,CLR,OVC,0.00,WeatherDisplay:10.37,2013-01-12 03:50:00,
2013-01-11 22:55:00,63.3,60.0,30.20,SSE,167,0.0,0.0,89,0.00,CLR,OVC,0.00,WeatherDisplay:10.37,2013-01-12 03:55:00,
2013-01-11 23:00:00,63.2,59.9,30.20,SSE,167,0.0,0.0,89,0.00,CLR,OVC,0.00,WeatherDisplay:10.37,2013-01-12 04:00:00,
2013-01-11 23:05:00,63.5,60.2,30.20,SSE,167,0.0,0.0,89,0.00,CLR,OVC,0.00,WeatherDisplay:10.37,2013-01-12 04:05:00,
2013-01-11 23:10:00,63.3,60.0,30.20,SSE,167,0.0,0.0,89,0.00,CLR,OVC,0.00,WeatherDisplay:10.37,2013-01-12 04:10:00,
2013-01-11 23:15:00,63.2,59.9,30.20,SSE,167,0.0,0.0,89,0.00,CLR,OVC,0.00,WeatherDisplay:10.37,2013-01-12 04:15:00,
2013-01-11 23:20:00,63.1,59.8,30.20,SSE,167,0.0,0.0,89,0.00,CLR,OVC,0.00,WeatherDisplay:10.37,2013-01-12 04:20:00,
2013-01-11 23:25:00,63.0,59.7,30.20,SSE,167,0.0,0.0,89,0.00,CLR,OVC,0.00,WeatherDisplay:10.37,2013-01-12 04:25:00,
2013-01-11 23:30:00,62.9,59.6,30.20,SSE,167,0.0,0.0,89,0.00,CLR,OVC,0.00,WeatherDisplay:10.37,2013-01-12 04:30:00,
2013-01-11 23:35:00,62.6,59.3,30.20,SSE,167,0.0,0.0,89,0.00,CLR,OVC,0.00,WeatherDisplay:10.37,2013-01-12 04:35:00,
2013-01-11 23:40:00,62.5,59.2,30.20,SSE,167,0.0,0.0,89,0.00,CLR,OVC,0.00,WeatherDisplay:10.37,2013-01-12 04:40:00,
2013-01-11 23:45:00,62.3,59.0,30.20,SSE,167,0.0,0.0,89,0.00,CLR,OVC,0.00,WeatherDisplay:10.37,2013-01-12 04:45:00,
2013-01-11 23:50:00,62.2,58.9,30.20,SSE,167,1.1,0.0,89,0.00,CLR,OVC,0.00,WeatherDisplay:10.37,2013-01-12 04:50:00,
2013-01-11 23:55:00,62.2,58.9,30.20,SSE,167,0.0,0.0,89,0.00,CLR,OVC,0.00,WeatherDisplay:10.37,2013-01-12 04:55:00,